Time;durP1;ratioP1;P1;durP2;ratioP2;P2;SDS_P1;SDS_P2;PMS_P1;PMS_P2;Temp;Humidity;BMP_temperature;BMP_pressure;BME280_temperature;BME280_humidity;BME280_pressure;Samples;Min_cycle;Max_cycle;Signal;HPM_P1;HPM_P2
2022/10/02 00:02:12;;;;;;;8.05;2.30;;;;;;;18.97;57.80;101441.91;4964986;28;20162;-79
2022/10/02 00:04:49;;;;;;;11.15;3.17;;;;;;;18.89;57.81;101444.63;4951548;28;20055;-80
2022/10/02 00:07:18;;;;;;;8.82;2.10;;;;;;;18.67;57.63;101430.00;4965370;28;20460;-79
2022/10/02 00:09:56;;;;;;;14.95;3.17;;;;;;;18.93;57.47;101462.09;4964961;28;20055;-79
2022/10/02 00:12:28;;;;;;;11.13;2.78;;;;;;;18.84;57.93;101462.28;4948019;28;20047;-78
2022/10/02 00:15:02;;;;;;;11.85;2.63;;;;;;;17.65;58.38;101289.69;4948756;28;20055;-80
2022/10/02 00:17:37;;;;;;;18.67;3.20;;;;;;;18.66;57.73;101454.34;4964997;28;20074;-80
2022/10/02 00:20:11;;;;;;;9.13;2.78;;;;;;;18.89;57.56;101482.28;4948688;28;20074;-79
2022/10/02 00:22:44;;;;;;;10.40;2.38;;;;;;;18.90;56.93;101483.94;4952689;29;20043;-79
2022/10/02 00:25:22;;;;;;;9.88;2.67;;;;;;;18.89;57.72;101482.28;4967994;28;20051;-79
2022/10/02 00:28:10;;;;;;;7.85;2.47;;;;;;;18.86;57.75;101493.38;4949674;29;20142;-79
2022/10/02 00:31:20;;;;;;;6.85;2.35;;;;;;;18.69;58.36;101471.00;4964500;28;20144;-79
2022/10/02 00:34:08;;;;;;;12.80;2.85;;;;;;;18.78;57.88;101502.28;4957249;28;20055;-77
2022/10/02 00:37:19;;;;;;;8.43;2.60;;;;;;;18.73;57.53;101506.47;4947962;28;20094;-78
2022/10/02 00:40:18;;;;;;;11.30;2.90;;;;;;;18.69;57.90;101508.66;4980530;28;20059;-77
2022/10/02 00:42:47;;;;;;;13.13;2.88;;;;;;;18.65;57.71;101501.09;4964582;28;20142;-78
2022/10/02 00:45:17;;;;;;;17.05;2.95;;;;;;;18.61;57.59;101507.81;4980332;28;20079;-80
2022/10/02 00:47:53;;;;;;;7.57;2.30;;;;;;;18.53;58.15;101504.09;4980651;28;20167;-79
2022/10/02 00:50:57;;;;;;;8.63;2.17;;;;;;;18.50;57.08;101509.81;4961936;28;20070;-80
2022/10/02 00:53:30;;;;;;;6.82;2.65;;;;;;;18.06;57.99;101459.00;4960924;28;20149;-79
2022/10/02 00:56:27;;;;;;;11.75;2.50;;;;;;;18.33;57.91;101513.50;4960687;28;20048;-79
2022/10/02 00:58:59;;;;;;;9.40;2.47;;;;;;;18.28;58.60;101511.28;4944512;29;20153;-80
2022/10/02 01:01:45;;;;;;;11.60;3.05;;;;;;;16.72;58.90;101262.88;4944838;29;20341;-80
2022/10/02 01:04:15;;;;;;;11.05;2.70;;;;;;;17.96;58.09;101460.97;4944251;28;20568;-79
2022/10/02 01:06:42;;;;;;;14.45;3.17;;;;;;;18.15;58.87;101505.53;4960483;28;20050;-80
2022/10/02 01:09:10;;;;;;;6.70;2.70;;;;;;;18.10;58.92;101503.34;4944580;29;20047;-81
2022/10/02 01:11:39;;;;;;;7.97;3.13;;;;;;;17.99;58.99;101495.59;4929995;29;20048;-81
2022/10/02 01:14:05;;;;;;;5.93;2.20;;;;;;;17.92;60.23;101494.56;4944242;29;20429;-79
2022/10/02 01:16:35;;;;;;;13.23;2.80;;;;;;;17.85;59.88;101494.38;4944354;29;20051;-81
2022/10/02 01:19:02;;;;;;;9.60;2.70;;;;;;;17.83;59.62;101500.91;4929632;29;20063;-78
2022/10/02 01:21:40;;;;;;;9.02;2.97;;;;;;;17.46;60.77;101464.47;4944241;29;20143;-77
2022/10/02 01:24:24;;;;;;;6.65;2.75;;;;;;;17.46;60.72;101484.09;4942808;28;20458;-78
2022/10/02 01:26:51;;;;;;;8.20;2.33;;;;;;;17.57;60.35;101501.75;4944168;29;20047;-79
2022/10/02 01:29:17;;;;;;;6.20;2.70;;;;;;;17.62;61.28;101518.25;4944269;29;20059;-80
2022/10/02 01:31:44;;;;;;;8.40;3.28;;;;;;;17.40;61.42;101494.63;4929809;29;20083;-78
2022/10/02 01:34:12;;;;;;;14.02;3.20;;;;;;;17.52;62.26;101528.25;4944186;29;20063;-78
2022/10/02 01:36:38;;;;;;;7.03;2.88;;;;;;;17.54;62.11;101531.63;4945486;29;20048;-79
2022/10/02 01:39:05;;;;;;;7.07;2.90;;;;;;;17.58;61.14;101508.81;4963135;28;20520;-78
2022/10/02 01:41:41;;;;;;;9.32;2.55;;;;;;;17.42;62.18;101498.00;4948285;28;20398;-79
2022/10/02 01:44:09;;;;;;;14.13;2.90;;;;;;;17.44;61.65;101522.84;4963008;28;20273;-79
2022/10/02 01:46:42;;;;;;;13.38;3.22;;;;;;;17.59;62.16;101537.34;4963169;28;20151;-79
2022/10/02 01:49:14;;;;;;;11.23;2.92;;;;;;;17.49;61.37;101531.25;4970076;28;20146;-79
2022/10/02 01:52:11;;;;;;;11.10;2.90;;;;;;;17.56;61.35;101547.56;4959665;28;20043;-79
2022/10/02 01:54:58;;;;;;;10.50;3.30;;;;;;;17.51;62.36;101548.06;4943466;29;20127;-80
2022/10/02 01:57:31;;;;;;;13.60;3.05;;;;;;;17.55;61.35;101551.25;4943428;29;20059;-79
2022/10/02 02:00:08;;;;;;;11.40;3.10;;;;;;;17.39;62.06;101530.53;4958707;28;20465;-79
2022/10/02 02:02:56;;;;;;;9.13;2.95;;;;;;;17.44;61.79;101541.63;4943358;29;20051;-79
2022/10/02 02:05:42;;;;;;;13.38;2.95;;;;;;;17.34;62.76;101527.47;4929119;29;20048;-78
2022/10/02 02:08:33;;;;;;;9.23;2.92;;;;;;;17.28;62.84;101535.16;4943201;29;20403;-79
2022/10/02 02:11:13;;;;;;;16.30;2.80;;;;;;;17.22;62.98;101543.00;4942272;29;20166;-80
2022/10/02 02:13:48;;;;;;;5.32;2.70;;;;;;;17.21;62.80;101536.78;4941847;29;20054;-80
2022/10/02 02:16:34;;;;;;;12.55;2.72;;;;;;;17.06;62.96;101515.06;4957738;28;20054;-79
2022/10/02 02:19:12;;;;;;;9.80;3.30;;;;;;;16.88;63.12;101501.66;4957796;28;20498;-77
2022/10/02 02:21:47;;;;;;;8.80;2.42;;;;;;;17.05;63.51;101534.00;4957832;28;20071;-78
2022/10/02 02:24:22;;;;;;;21.98;3.80;;;;;;;17.02;63.18;101539.69;4941920;29;20201;-81
2022/10/02 02:26:52;;;;;;;9.43;2.65;;;;;;;16.88;63.35;101517.75;4942049;29;20058;-79
2022/10/02 02:29:21;;;;;;;14.82;3.20;;;;;;;17.13;63.44;101542.09;4941630;29;20066;-80
2022/10/02 02:31:52;;;;;;;12.43;3.45;;;;;;;17.18;62.37;101539.78;4942279;29;20064;-80
2022/10/02 02:34:32;;;;;;;9.75;3.05;;;;;;;17.10;62.59;101534.34;4928627;29;20056;-78
2022/10/02 02:37:04;;;;;;;9.52;3.38;;;;;;;17.18;62.42;101539.78;4952390;28;20257;-79
2022/10/02 02:40:03;;;;;;;7.18;2.75;;;;;;;16.70;62.11;101459.75;4954598;29;20280;-80
2022/10/02 02:42:34;;;;;;;6.55;2.50;;;;;;;17.18;60.38;101531.72;4953457;28;20051;-80
2022/10/02 02:45:23;;;;;;;11.63;3.20;;;;;;;17.08;60.56;101507.69;4964921;28;20138;-80
2022/10/02 02:48:21;;;;;;;6.38;2.60;;;;;;;17.21;61.04;101531.44;4950439;29;20059;-79
2022/10/02 02:50:59;;;;;;;11.75;2.90;;;;;;;17.20;61.45;101537.78;4931255;29;20055;-80
2022/10/02 02:53:45;;;;;;;9.70;2.63;;;;;;;16.96;61.28;101508.09;4932442;29;20079;-79
2022/10/02 02:56:15;;;;;;;11.02;3.20;;;;;;;17.08;62.06;101536.34;4931847;29;20061;-80
2022/10/02 02:58:48;;;;;;;7.40;2.67;;;;;;;16.80;61.72;101509.66;4961435;28;20058;-80
2022/10/02 03:01:15;;;;;;;7.13;2.70;;;;;;;17.06;61.43;101535.66;4930334;29;20047;-80
2022/10/02 03:03:41;;;;;;;10.02;2.85;;;;;;;17.05;61.33;101544.72;4930399;29;20060;-79
2022/10/02 03:06:14;;;;;;;10.38;3.20;;;;;;;16.60;62.18;101481.28;4962511;28;20091;-80
2022/10/02 03:08:42;;;;;;;8.63;3.05;;;;;;;16.94;61.58;101540.44;4947179;29;20557;-79
2022/10/02 03:11:27;;;;;;;7.00;2.40;;;;;;;16.97;62.02;101547.34;4961106;28;20082;-79
2022/10/02 03:14:13;;;;;;;13.32;2.97;;;;;;;16.92;60.45;101553.19;4945473;29;20056;-80
2022/10/02 03:16:51;;;;;;;12.05;2.58;;;;;;;16.90;61.41;101552.47;4931637;29;20139;-78
2022/10/02 03:19:42;;;;;;;9.10;2.63;;;;;;;15.68;61.50;101346.66;4946657;29;20434;-78
2022/10/02 03:22:28;;;;;;;6.18;2.38;;;;;;;16.93;61.73;101562.91;4946324;29;20048;-79
2022/10/02 03:25:01;;;;;;;5.97;2.33;;;;;;;16.84;60.98;101534.31;4946508;29;20079;-80
2022/10/02 03:27:40;;;;;;;8.85;3.08;;;;;;;16.83;62.04;101540.69;4946345;29;20051;-80
2022/10/02 03:30:20;;;;;;;7.05;2.60;;;;;;;16.67;62.36;101535.97;4946297;29;20048;-80
2022/10/02 03:32:52;;;;;;;5.97;2.72;;;;;;;16.58;61.81;101528.88;4929739;29;20079;-80
2022/10/02 03:35:21;;;;;;;6.13;2.58;;;;;;;16.83;62.02;101579.06;4929352;29;20063;-80
2022/10/02 03:37:51;;;;;;;8.80;2.83;;;;;;;16.40;62.39;101510.09;4939854;28;20606;-80
2022/10/02 03:40:25;;;;;;;7.13;2.92;;;;;;;16.77;62.87;101573.44;4965151;28;20055;-80
2022/10/02 03:42:57;;;;;;;4.97;2.55;;;;;;;16.77;62.68;101568.06;4965135;28;20575;-77
2022/10/02 03:45:24;;;;;;;6.10;2.80;;;;;;;16.83;61.83;101571.03;4965506;28;20347;-79
2022/10/02 03:48:11;;;;;;;8.52;2.50;;;;;;;16.82;61.60;101566.66;4975369;28;20059;-80
2022/10/02 03:50:37;;;;;;;9.05;3.28;;;;;;;16.84;62.45;101575.38;4949364;28;20413;-79
2022/10/02 03:53:16;;;;;;;6.05;2.60;;;;;;;16.64;62.21;101552.38;4949288;28;20047;-78
2022/10/02 03:55:47;;;;;;;7.60;2.78;;;;;;;16.67;61.79;101566.34;4965347;28;20058;-79
2022/10/02 03:58:16;;;;;;;6.33;2.60;;;;;;;16.71;62.60;101574.91;4949532;28;20062;-80
2022/10/02 04:01:10;;;;;;;4.75;2.22;;;;;;;16.72;62.25;101584.63;4948911;28;20478;-79
2022/10/02 04:03:48;;;;;;;9.60;2.72;;;;;;;16.36;62.07;101514.06;4950338;28;20058;-79
2022/10/02 04:06:21;;;;;;;7.38;3.38;;;;;;;16.74;62.06;101589.84;4949038;28;20047;-78
2022/10/02 04:09:01;;;;;;;8.90;3.28;;;;;;;16.91;61.11;101590.88;4950451;29;20138;-78
2022/10/02 04:11:40;;;;;;;8.85;2.92;;;;;;;16.86;61.68;101596.69;4949049;28;20062;-80
2022/10/02 04:14:26;;;;;;;8.48;2.50;;;;;;;16.78;61.91;101597.47;4948656;28;20106;-78
2022/10/02 04:17:02;;;;;;;8.30;3.22;;;;;;;16.71;62.74;101607.06;4942005;28;20054;-79
2022/10/02 04:19:39;;;;;;;10.15;3.10;;;;;;;16.52;62.95;101585.75;4949844;28;20053;-80
2022/10/02 04:22:31;;;;;;;14.25;3.33;;;;;;;16.67;62.83;101624.44;4949747;28;20051;-79
2022/10/02 04:25:32;;;;;;;6.43;2.35;;;;;;;16.24;62.52;101541.09;4964962;28;20047;-79
2022/10/02 04:28:06;;;;;;;6.53;3.20;;;;;;;16.34;63.32;101567.00;4949928;29;20138;-79
2022/10/02 04:30:33;;;;;;;9.85;2.95;;;;;;;16.70;62.83;101616.13;4948555;28;20474;-79
2022/10/02 04:33:17;;;;;;;5.95;2.80;;;;;;;16.66;63.19;101615.56;4948126;28;20079;-79
2022/10/02 04:36:02;;;;;;;7.43;2.90;;;;;;;16.61;63.42;101623.22;4964579;28;20141;-79
2022/10/02 04:38:50;;;;;;;5.47;2.83;;;;;;;16.65;62.28;101629.13;4964586;28;20051;-80
2022/10/02 04:41:39;;;;;;;14.85;3.30;;;;;;;16.38;61.59;101569.22;4964740;28;20337;-79
2022/10/02 04:44:26;;;;;;;7.40;3.08;;;;;;;16.68;62.30;101639.56;4981177;28;20139;-80
2022/10/02 04:47:07;;;;;;;10.68;3.55;;;;;;;16.37;63.10;101612.22;4981077;28;20065;-79
2022/10/02 04:50:01;;;;;;;7.03;3.08;;;;;;;16.55;62.85;101644.41;4940035;29;20067;-80
2022/10/02 04:52:30;;;;;;;9.95;3.45;;;;;;;16.26;62.47;101586.47;4968541;28;20082;-79
2022/10/02 04:55:26;;;;;;;10.30;2.90;;;;;;;16.36;63.08;101618.56;4965105;28;20055;-78
2022/10/02 04:58:12;;;;;;;6.43;2.80;;;;;;;16.65;62.60;101661.28;4924743;28;20099;-77
2022/10/02 05:00:48;;;;;;;11.70;4.05;;;;;;;16.52;63.29;101658.13;4930393;29;20060;-79
2022/10/02 05:03:40;;;;;;;7.65;3.05;;;;;;;16.49;63.78;101650.41;4944616;29;20506;-79
2022/10/02 05:06:12;;;;;;;7.80;3.38;;;;;;;16.51;63.69;101641.22;4972658;28;20055;-79
2022/10/02 05:09:03;;;;;;;8.75;3.40;;;;;;;16.49;62.92;101631.63;4963266;28;20057;-80
2022/10/02 05:11:49;;;;;;;8.10;3.38;;;;;;;16.48;64.33;101649.56;4963361;28;20537;-80
2022/10/02 05:15:03;;;;;;;10.30;3.30;;;;;;;16.41;64.53;101659.19;4948844;29;20462;-80
2022/10/02 05:17:54;;;;;;;9.95;2.90;;;;;;;16.34;64.53;101658.94;4929380;28;20047;-80
2022/10/02 05:20:36;;;;;;;14.60;3.08;;;;;;;16.17;63.90;101649.00;4960180;28;20044;-79
2022/10/02 05:23:23;;;;;;;11.75;4.00;;;;;;;16.35;64.13;101657.94;4961579;28;20043;-79
2022/10/02 05:25:59;;;;;;;11.95;4.03;;;;;;;16.53;63.34;101665.16;4963615;28;20733;-78
2022/10/02 05:28:32;;;;;;;7.70;3.80;;;;;;;16.47;64.66;101676.50;4992816;28;20454;-78
2022/10/02 05:31:11;;;;;;;8.95;3.50;;;;;;;16.42;64.09;101671.59;4981122;28;20207;-78
2022/10/02 05:34:06;;;;;;;10.18;3.85;;;;;;;16.27;64.85;101657.00;4963336;28;20051;-78
2022/10/02 05:36:48;;;;;;;9.05;3.63;;;;;;;16.22;65.37;101655.59;4963035;28;20043;-79
2022/10/02 05:39:27;;;;;;;13.73;3.97;;;;;;;16.16;65.52;101663.38;4962969;28;20417;-79
2022/10/02 05:42:04;;;;;;;10.20;3.92;;;;;;;16.22;65.54;101673.50;4979414;28;20117;-79
2022/10/02 05:44:41;;;;;;;10.38;3.67;;;;;;;16.16;65.29;101655.34;4947146;28;20054;-80
2022/10/02 05:47:17;;;;;;;11.52;3.80;;;;;;;16.20;65.38;101656.72;4947027;29;20057;-78
2022/10/02 05:49:58;;;;;;;7.25;3.45;;;;;;;16.29;65.46;101649.63;4944094;28;20079;-79
2022/10/02 05:52:37;;;;;;;10.05;3.65;;;;;;;15.98;66.33;101604.38;4929288;29;20048;-79
2022/10/02 05:55:07;;;;;;;8.68;3.72;;;;;;;16.31;66.49;101661.03;4947681;29;20047;-79
2022/10/02 05:57:46;;;;;;;9.38;4.05;;;;;;;16.33;66.61;101667.94;4963730;28;20103;-81
2022/10/02 06:00:19;;;;;;;14.63;4.18;;;;;;;16.18;66.22;101637.28;4962694;28;20065;-79
2022/10/02 06:03:10;;;;;;;12.98;3.95;;;;;;;16.24;66.39;101652.78;4963018;28;20069;-79
2022/10/02 06:06:11;;;;;;;7.70;3.15;;;;;;;15.86;66.54;101590.34;4963150;28;20511;-79
2022/10/02 06:09:21;;;;;;;6.65;3.40;;;;;;;16.29;66.45;101661.22;4942094;28;20055;-80
2022/10/02 06:12:01;;;;;;;5.35;3.00;;;;;;;16.40;65.63;101663.69;4953783;28;20086;-81
2022/10/02 06:14:35;;;;;;;7.68;3.25;;;;;;;16.56;65.77;101673.78;4948302;29;20043;-80
2022/10/02 06:17:08;;;;;;;6.82;3.33;;;;;;;16.26;66.36;101623.97;4962973;28;20051;-79
2022/10/02 06:19:45;;;;;;;8.63;3.55;;;;;;;16.68;65.73;101682.47;4962910;28;20058;-81
2022/10/02 06:22:22;;;;;;;5.35;2.97;;;;;;;16.40;65.72;101622.66;4962680;28;20893;-81
2022/10/02 06:25:26;;;;;;;9.57;3.58;;;;;;;16.85;66.12;101697.75;4962769;28;20083;-78
2022/10/02 06:27:59;;;;;;;8.07;2.88;;;;;;;17.00;65.35;101705.28;4963002;28;20085;-79
2022/10/02 06:30:29;;;;;;;7.07;3.22;;;;;;;17.06;64.81;101715.41;4962548;28;20047;-80
2022/10/02 06:33:21;;;;;;;7.40;3.33;;;;;;;16.77;63.92;101648.50;4978688;28;20055;-78
2022/10/02 06:35:56;;;;;;;5.80;2.65;;;;;;;17.11;64.81;101704.22;4948205;29;20063;-80
2022/10/02 06:38:51;;;;;;;9.55;3.03;;;;;;;17.21;65.41;101715.72;4962455;28;20660;-80
2022/10/02 06:41:39;;;;;;;8.02;3.60;;;;;;;17.24;65.98;101712.75;4978454;28;20134;-80
2022/10/02 06:44:16;;;;;;;7.05;3.35;;;;;;;16.70;65.75;101624.16;4961912;28;20146;-81
2022/10/02 06:47:16;;;;;;;6.75;3.47;;;;;;;17.34;65.82;101716.19;4961011;28;20564;-79
2022/10/02 06:50:00;;;;;;;6.60;3.15;;;;;;;17.45;64.75;101712.41;4961314;28;20494;-80
2022/10/02 06:52:37;;;;;;;10.00;4.03;;;;;;;17.51;65.01;101712.66;4961993;28;20125;-77
2022/10/02 06:55:18;;;;;;;7.10;3.10;;;;;;;17.46;64.89;101701.53;4946670;28;20210;-79
2022/10/02 06:58:00;;;;;;;6.93;2.60;;;;;;;17.57;64.76;101716.53;4962775;28;20051;-78
2022/10/02 07:00:26;;;;;;;5.47;2.88;;;;;;;17.66;64.08;101720.16;4946278;29;20091;-79
2022/10/02 07:03:17;;;;;;;5.22;2.92;;;;;;;17.75;64.21;101718.38;4944946;28;20067;-79
2022/10/02 07:05:56;;;;;;;4.50;2.67;;;;;;;17.86;63.68;101720.81;4964485;28;20051;-79
2022/10/02 07:08:47;;;;;;;5.38;2.75;;;;;;;17.54;62.99;101652.44;4947196;29;20697;-79
2022/10/02 07:11:33;;;;;;;8.52;2.53;;;;;;;18.20;61.79;101718.19;4960084;28;20047;-80
2022/10/02 07:14:26;;;;;;;5.47;2.30;;;;;;;17.58;60.93;101597.44;4944393;28;20490;-78
2022/10/02 07:16:59;;;;;;;5.25;2.38;;;;;;;17.34;59.86;101544.41;4946923;28;20140;-79
2022/10/02 07:19:41;;;;;;;7.60;2.63;;;;;;;18.51;60.14;101731.13;4961073;28;20106;-80
2022/10/02 07:22:17;;;;;;;6.72;2.42;;;;;;;18.66;58.80;101718.75;4963449;28;20154;-79
2022/10/02 07:25:41;;;;;;;9.50;2.92;;;;;;;18.83;59.13;101719.69;4961922;28;20142;-79
2022/10/02 07:28:20;;;;;;;10.23;3.05;;;;;;;18.84;59.86;101705.25;4964938;28;20217;-79
2022/10/02 07:31:14;;;;;;;8.43;2.33;;;;;;;18.39;59.33;101630.25;4965927;28;20051;-78
2022/10/02 07:33:51;;;;;;;7.68;2.53;;;;;;;18.91;59.03;101708.09;4951423;29;20043;-79
2022/10/02 07:36:46;;;;;;;6.43;2.00;;;;;;;18.93;56.61;101688.13;4965866;28;20114;-80
2022/10/02 07:39:34;;;;;;;9.20;1.98;;;;;;;19.10;56.35;101715.03;4965390;28;20051;-80
2022/10/02 07:42:14;;;;;;;6.18;2.10;;;;;;;18.76;57.39;101659.47;4981858;28;20260;-79
2022/10/02 07:45:10;;;;;;;7.82;2.33;;;;;;;19.16;57.71;101719.78;4949401;28;20145;-79
2022/10/02 07:48:14;;;;;;;4.60;1.77;;;;;;;19.23;56.42;101720.78;4940855;29;20058;-79
2022/10/02 07:51:05;;;;;;;4.15;1.70;;;;;;;19.28;57.07;101713.06;4946215;29;20063;-80
2022/10/02 07:53:50;;;;;;;8.55;2.05;;;;;;;18.92;57.00;101656.81;4966736;28;20051;-80
2022/10/02 07:56:22;;;;;;;3.53;2.28;;;;;;;18.72;56.97;101620.44;4948202;29;20051;-78
2022/10/02 07:58:55;;;;;;;13.77;2.80;;;;;;;19.19;56.98;101687.97;4965552;28;20051;-78
2022/10/02 08:01:33;;;;;;;3.20;1.73;;;;;;;18.66;55.23;101600.41;4948394;29;20299;-77
2022/10/02 08:04:05;;;;;;;3.78;2.35;;;;;;;18.55;55.45;101574.69;4950671;29;20055;-78
2022/10/02 08:06:33;;;;;;;8.35;2.45;;;;;;;18.84;55.46;101602.16;4965328;28;20489;-79
2022/10/02 08:09:16;;;;;;;4.97;1.95;;;;;;;19.50;55.04;101716.94;4964634;28;20134;-79
2022/10/02 08:11:48;;;;;;;8.23;2.20;;;;;;;19.67;55.22;101733.09;4965046;28;20448;-81
2022/10/02 08:14:21;;;;;;;5.07;1.98;;;;;;;19.69;55.60;101748.13;4964851;28;20055;-82
2022/10/02 08:16:51;;;;;;;4.82;1.77;;;;;;;19.75;54.62;101736.66;4964836;28;20058;-78
2022/10/02 08:19:38;;;;;;;5.90;2.05;;;;;;;19.60;53.65;101696.06;4964662;28;20051;-78
2022/10/02 08:22:14;;;;;;;4.22;2.03;;;;;;;19.68;54.53;101708.72;4964851;28;20509;-80
2022/10/02 08:24:47;;;;;;;5.85;2.15;;;;;;;19.73;54.52;101700.13;4964979;28;20121;-79
2022/10/02 08:27:27;;;;;;;12.40;2.40;;;;;;;19.67;54.17;101674.69;4964754;28;20055;-79
2022/10/02 08:30:05;;;;;;;4.43;2.05;;;;;;;19.98;53.70;101725.19;4964462;28;20139;-81
2022/10/02 08:32:35;;;;;;;4.22;2.20;;;;;;;20.02;54.21;101721.13;4964161;28;20055;-80
2022/10/02 08:35:11;;;;;;;10.68;2.60;;;;;;;20.03;52.62;101703.97;4964847;28;20055;-80
2022/10/02 08:37:56;;;;;;;5.70;2.20;;;;;;;20.10;53.66;101722.97;4948371;28;20486;-79
2022/10/02 08:41:17;;;;;;;9.30;2.08;;;;;;;20.10;53.57;101718.44;4980784;28;20395;-79
2022/10/02 08:44:02;;;;;;;8.82;2.45;;;;;;;20.19;53.14;101711.97;4912044;29;20163;-79
2022/10/02 08:46:38;;;;;;;4.80;2.17;;;;;;;20.25;53.97;101722.09;4945160;29;20058;-80
2022/10/02 08:49:14;;;;;;;13.02;2.25;;;;;;;20.23;52.86;101697.16;4953758;28;20477;-80
2022/10/02 08:52:03;;;;;;;6.18;2.10;;;;;;;20.08;52.98;101650.38;4963704;28;20143;-80
2022/10/02 08:54:49;;;;;;;5.97;2.00;;;;;;;20.53;52.30;101697.38;4962866;28;20054;-80
2022/10/02 08:57:42;;;;;;;5.40;2.33;;;;;;;20.54;52.45;101682.88;4963390;28;20403;-82
2022/10/02 09:00:32;;;;;;;6.15;2.05;;;;;;;20.33;51.77;101631.41;4964238;28;20053;-79
2022/10/02 09:03:26;;;;;;;6.32;2.42;;;;;;;20.76;51.12;101683.16;4948073;28;20142;-79
2022/10/02 09:06:08;;;;;;;11.68;2.40;;;;;;;21.04;51.62;101699.66;4962528;28;20553;-78
2022/10/02 09:09:12;;;;;;;5.68;2.00;;;;;;;21.21;50.28;101689.59;4947922;29;20053;-80
2022/10/02 09:12:13;;;;;;;7.22;2.50;;;;;;;21.32;50.90;101654.91;4963779;28;20043;-81
2022/10/02 09:14:51;;;;;;;7.75;2.15;;;;;;;21.18;49.86;101630.56;4964368;28;20055;-79
2022/10/02 09:17:45;;;;;;;7.60;2.28;;;;;;;21.67;49.17;101685.00;4947128;29;20059;-80
2022/10/02 09:20:34;;;;;;;6.50;1.65;;;;;;;21.79;49.53;101681.88;4964663;28;20047;-79
2022/10/02 09:23:19;;;;;;;6.95;1.67;;;;;;;21.97;48.08;101675.09;4952405;29;20055;-79
2022/10/02 09:25:57;;;;;;;8.88;2.13;;;;;;;22.16;48.50;101672.84;4968920;28;20484;-79
2022/10/02 09:28:42;;;;;;;5.95;1.85;;;;;;;22.19;48.24;101672.47;4949451;28;20062;-78
2022/10/02 09:31:11;;;;;;;8.40;3.00;;;;;;;22.21;49.14;101648.81;4963796;28;20055;-79
2022/10/02 09:34:04;;;;;;;18.73;8.57;;;;;;;22.51;48.69;101665.00;4948740;28;20052;-79
2022/10/02 09:36:59;;;;;;;10.35;4.45;;;;;;;22.70;48.17;101663.56;4948740;29;20147;-79
2022/10/02 09:40:07;;;;;;;5.40;1.90;;;;;;;22.70;47.94;101674.41;4949183;29;20520;-78
2022/10/02 09:42:58;;;;;;;6.10;2.05;;;;;;;22.23;47.57;101611.59;4960989;28;20058;-79
2022/10/02 09:45:59;;;;;;;7.97;2.43;;;;;;;22.49;48.51;101678.72;4963060;28;20102;-81
2022/10/02 09:48:39;;;;;;;8.23;2.50;;;;;;;22.57;48.85;101675.06;4963290;28;20315;-80
2022/10/02 09:51:25;;;;;;;7.38;2.22;;;;;;;22.38;49.07;101634.06;4963408;28;20087;-79
2022/10/02 09:54:30;;;;;;;4.70;1.92;;;;;;;22.76;48.60;101652.81;4963043;28;20051;-79
2022/10/02 09:57:20;;;;;;;8.18;2.50;;;;;;;23.15;48.34;101665.09;4932630;28;20054;-78
2022/10/02 10:00:10;;;;;;;9.00;2.30;;;;;;;23.39;46.73;101663.88;4962859;28;20046;-80
2022/10/02 10:02:55;;;;;;;7.80;1.95;;;;;;;23.54;46.04;101663.78;4960441;28;20055;-82
2022/10/02 10:05:53;;;;;;;8.38;2.30;;;;;;;23.61;46.38;101640.25;4969292;28;20050;-80
2022/10/02 10:08:42;;;;;;;5.40;2.65;;;;;;;23.79;45.24;101633.56;4947146;29;20101;-81
2022/10/02 10:11:15;;;;;;;3.88;1.83;;;;;;;23.63;46.13;101586.69;4982371;28;20412;-79
2022/10/02 10:14:07;;;;;;;6.65;2.05;;;;;;;24.19;45.33;101639.19;4982555;28;20043;-81
2022/10/02 10:16:55;;;;;;;9.50;2.10;;;;;;;24.41;45.43;101645.34;4982243;28;20256;-80
2022/10/02 10:19:44;;;;;;;9.23;2.00;;;;;;;24.57;45.15;101625.19;4966115;28;20053;-80
2022/10/02 10:22:37;;;;;;;11.85;5.07;;;;;;;24.84;44.94;101616.06;4967511;28;20467;-81
2022/10/02 10:25:43;;;;;;;7.80;3.00;;;;;;;25.10;43.70;101622.56;4966451;28;20043;-80
2022/10/02 10:28:37;;;;;;;10.55;2.63;;;;;;;25.18;43.48;101597.94;4945766;28;20513;-80
2022/10/02 10:31:41;;;;;;;7.88;4.40;;;;;;;25.50;42.57;101607.09;4980804;28;20062;-81
2022/10/02 10:34:26;;;;;;;6.63;3.25;;;;;;;25.57;43.55;101597.06;4980656;28;20057;-81
2022/10/02 10:40:06;;;;;;;9.63;2.90;;;;;;;25.98;42.17;101597.81;4947151;28;20067;-80
2022/10/02 10:43:10;;;;;;;9.68;2.55;;;;;;;26.14;41.63;101594.63;4977238;28;20138;-80
2022/10/02 10:46:05;;;;;;;9.38;2.60;;;;;;;26.37;42.06;101595.97;4976928;28;20047;-80
2022/10/02 10:48:42;;;;;;;12.07;2.60;;;;;;;26.22;41.73;101545.38;4962563;28;20334;-80
2022/10/02 10:51:32;;;;;;;7.30;2.17;;;;;;;26.68;41.34;101592.50;4962053;28;20091;-79
2022/10/02 10:54:04;;;;;;;6.30;2.50;;;;;;;26.61;42.14;101595.25;4946739;28;20058;-81
2022/10/02 10:56:43;;;;;;;11.05;2.65;;;;;;;26.71;40.92;101588.50;4964559;28;20066;-80
2022/10/02 10:59:15;;;;;;;8.00;2.90;;;;;;;26.87;41.26;101590.69;4951826;29;20051;-80
2022/10/02 11:02:21;;;;;;;7.45;2.67;;;;;;;26.94;41.42;101591.44;4951272;29;20062;-80
2022/10/02 11:05:21;;;;;;;12.27;4.35;;;;;;;26.98;40.74;101559.16;4966241;28;20047;-80
2022/10/02 11:08:09;;;;;;;6.30;2.53;;;;;;;27.20;41.52;101578.69;4966657;28;20106;-80
2022/10/02 11:11:13;;;;;;;6.80;3.20;;;;;;;27.11;41.22;101580.00;4951717;28;20142;-79
2022/10/02 11:14:18;;;;;;;5.88;2.50;;;;;;;27.07;41.24;101585.91;4965947;28;20494;-82
2022/10/02 11:17:00;;;;;;;6.30;2.20;;;;;;;27.03;41.80;101573.78;4966235;28;20145;-78
2022/10/02 11:19:35;;;;;;;6.65;2.80;;;;;;;26.95;41.56;101571.34;4966440;28;20462;-81
2022/10/02 11:22:06;;;;;;;6.93;2.17;;;;;;;26.83;41.80;101573.09;4966272;28;20142;-79
2022/10/02 11:24:44;;;;;;;4.30;2.10;;;;;;;26.56;42.08;101565.13;4951714;29;20082;-80
2022/10/02 11:27:34;;;;;;;10.20;2.63;;;;;;;25.58;42.24;101423.88;4966439;28;20418;-80
2022/10/02 11:30:04;;;;;;;7.57;3.03;;;;;;;26.07;42.87;101506.75;4950454;28;20055;-80
2022/10/02 11:32:50;;;;;;;6.78;2.60;;;;;;;26.37;43.10;101566.03;4966388;28;20047;-80
2022/10/02 11:35:29;;;;;;;10.75;2.75;;;;;;;26.20;43.70;101547.50;4965973;28;20314;-79
2022/10/02 11:38:26;;;;;;;8.13;3.53;;;;;;;26.10;43.83;101551.75;4949439;28;20074;-79
2022/10/02 11:41:24;;;;;;;11.48;3.53;;;;;;;25.93;44.55;101545.94;4982077;28;20055;-79
2022/10/02 11:44:19;;;;;;;7.75;2.60;;;;;;;25.67;44.42;101531.34;4983780;28;20052;-79
2022/10/02 11:47:30;;;;;;;9.23;2.83;;;;;;;25.46;44.49;101518.03;4984736;28;20051;-81
2022/10/02 11:50:33;;;;;;;5.85;2.30;;;;;;;25.44;45.41;101531.00;4927961;29;20134;-81
2022/10/02 11:53:30;;;;;;;8.57;2.78;;;;;;;25.33;45.94;101527.88;4950549;29;20069;-81
2022/10/02 11:56:15;;;;;;;6.82;1.90;;;;;;;25.18;45.78;101500.13;4949480;28;20101;-80
2022/10/02 11:59:17;;;;;;;8.88;2.97;;;;;;;25.25;45.89;101521.84;4965396;28;20488;-80
2022/10/02 12:01:55;;;;;;;11.50;2.90;;;;;;;24.95;46.20;101498.66;4940488;29;20493;-80
2022/10/02 12:04:28;;;;;;;7.68;2.38;;;;;;;24.90;46.77;101495.75;4965346;28;20150;-80
2022/10/02 12:07:16;;;;;;;7.45;2.40;;;;;;;24.94;47.00;101518.69;4965333;28;20051;-80
2022/10/02 12:10:16;;;;;;;12.68;3.22;;;;;;;24.89;47.28;101513.06;4951193;28;20078;-79
2022/10/02 12:12:53;;;;;;;8.95;2.67;;;;;;;24.85;47.36;101517.22;4952751;28;20051;-78
2022/10/02 12:15:29;;;;;;;9.85;2.63;;;;;;;24.76;47.70;101515.78;4965853;28;20185;-80
2022/10/02 12:18:05;;;;;;;5.50;2.55;;;;;;;24.74;47.83;101512.44;4949349;28;20474;-80
2022/10/02 12:26:58;;;;;;;7.82;2.33;;;;;;;24.81;47.80;101507.84;4950711;28;20492;-79
2022/10/02 12:30:03;;;;;;;7.10;2.70;;;;;;;24.92;47.61;101504.50;4964800;28;20078;-81
2022/10/02 12:32:48;;;;;;;6.03;2.55;;;;;;;24.46;48.18;101470.00;4950001;28;20047;-79
2022/10/02 12:35:18;;;;;;;13.73;2.90;;;;;;;24.58;48.47;101500.09;4964854;28;20413;-78
2022/10/02 12:38:03;;;;;;;5.32;2.53;;;;;;;24.60;48.53;101499.91;4949607;28;20454;-80
2022/10/02 12:41:01;;;;;;;7.00;3.08;;;;;;;24.61;48.30;101494.25;4980527;28;20146;-81
2022/10/02 12:44:04;;;;;;;6.85;2.40;;;;;;;24.66;48.90;101485.47;4980409;28;20080;-80
2022/10/02 12:46:33;;;;;;;8.30;2.28;;;;;;;24.62;48.73;101485.06;4980649;28;20130;-80